createdAt,value
2022-12-18T00:01:07.093Z,99891.72
2022-12-18T00:04:24.797Z,99905.41
2022-12-18T00:07:28.325Z,99906.75
2022-12-18T00:10:31.677Z,99910.03
2022-12-18T00:13:37.290Z,99915.03
2022-12-18T00:16:41.295Z,99923.47
2022-12-18T00:19:44.950Z,99922.66
2022-12-18T00:22:48.252Z,99927.28
2022-12-18T00:25:51.729Z,99924.56
2022-12-18T00:28:57.627Z,99931.94
2022-12-18T00:32:01.285Z,99927.81
2022-12-18T00:35:06.281Z,99931.63
2022-12-18T00:38:10.015Z,99927.22
2022-12-18T00:41:36.289Z,99935.44
2022-12-18T00:44:42.843Z,99939.50
2022-12-18T00:47:46.167Z,99947.97
2022-12-18T00:50:50.389Z,99953.44
2022-12-18T00:53:53.780Z,99962.69
2022-12-18T00:56:57.534Z,99956.63
2022-12-18T01:00:02.390Z,99961.03
2022-12-18T01:03:07.598Z,99970.06
2022-12-18T01:06:13.962Z,99973.63
2022-12-18T01:09:17.705Z,99982.69
2022-12-18T01:12:21.083Z,99980.56
2022-12-18T01:15:29.223Z,99989.09
2022-12-18T01:18:32.658Z,99993.50
2022-12-18T01:21:36.628Z,100005.03
2022-12-18T01:24:41.456Z,100004.75
2022-12-18T01:27:45.516Z,100011.06
2022-12-18T01:30:50.371Z,100008.09
2022-12-18T01:33:55.424Z,100014.38
2022-12-18T01:36:59.191Z,100008.91
2022-12-18T01:40:03.273Z,100017.13
2022-12-18T01:43:06.569Z,100014.38
2022-12-18T01:46:11.692Z,100015.81
2022-12-18T01:49:15.188Z,100019.38
2022-12-18T01:52:22.654Z,100018.06
2022-12-18T01:55:30.706Z,100017.47
2022-12-18T01:58:43.478Z,100022.09
2022-12-18T02:01:48.606Z,100032.22
2022-12-18T02:04:52.990Z,100039.59
2022-12-18T02:08:11.712Z,100046.25
2022-12-18T02:11:27.620Z,100049.47
2022-12-18T02:14:42.849Z,100049.72
2022-12-18T02:17:56.418Z,100047.25
2022-12-18T02:21:12.498Z,100050.22
2022-12-18T02:24:30.292Z,100061.41
2022-12-18T02:27:40.306Z,100060.84
2022-12-18T02:30:49.843Z,100067.41
2022-12-18T02:33:58.380Z,100069.31
2022-12-18T02:37:10.060Z,100067.41
2022-12-18T02:40:17.866Z,100081.56
2022-12-18T02:43:23.848Z,100082.41
2022-12-18T02:46:34.533Z,100068.97
2022-12-18T02:50:03.314Z,100077.19
2022-12-18T02:53:19.621Z,100080.63
2022-12-18T02:56:34.592Z,100083.34
2022-12-18T02:59:54.096Z,100084.44
2022-12-18T03:03:06.726Z,100097.28
2022-12-18T03:06:20.761Z,100094.53
2022-12-18T03:09:34.021Z,100090.16
2022-12-18T03:12:43.892Z,100093.16
2022-12-18T03:15:55.262Z,100104.34
2022-12-18T03:19:05.354Z,100116.38
2022-12-18T03:22:10.163Z,100116.84
2022-12-18T03:25:30.478Z,100110.53
2022-12-18T03:28:42.104Z,100116.84
2022-12-18T03:31:53.673Z,100128.03
2022-12-18T03:35:05.705Z,100129.34
2022-12-18T03:38:14.311Z,100134.25
2022-12-18T03:41:34.816Z,100137.56
2022-12-18T03:45:08.738Z,100130.94
2022-12-18T03:48:23.120Z,100141.88
2022-12-18T03:51:36.299Z,100143.53
2022-12-18T03:54:44.972Z,100141.88
2022-12-18T03:57:54.557Z,100148.41
2022-12-18T04:01:05.150Z,100152.81
2022-12-18T04:04:14.479Z,100146.75
2022-12-18T04:07:20.376Z,100165.06
2022-12-18T04:10:24.256Z,100166.97
2022-12-18T04:13:34.003Z,100164.25
2022-12-18T04:16:39.412Z,100166.38
2022-12-18T04:19:48.717Z,100179.81
2022-12-18T04:22:52.881Z,100176.25
2022-12-18T04:25:57.517Z,100169.13
2022-12-18T04:29:16.611Z,100175.66
2022-12-18T04:32:20.799Z,100182.78
2022-12-18T04:35:26.905Z,100190.78
2022-12-18T04:38:30.690Z,100191.59
2022-12-18T04:41:40.874Z,100191.34
2022-12-18T04:44:46.163Z,100194.69
2022-12-18T04:47:49.721Z,100201.56
2022-12-18T04:50:54.907Z,100202.75
2022-12-18T04:53:58.748Z,100194.53
2022-12-18T04:57:02.704Z,100206.56
2022-12-18T05:00:08.036Z,100206.06
2022-12-18T05:03:11.746Z,100214.28
2022-12-18T05:06:16.872Z,100211.91
2022-12-18T05:09:20.629Z,100208.09
2022-12-18T05:12:26.877Z,100211.66
2022-12-18T05:15:32.570Z,100216.63
2022-12-18T05:18:36.767Z,100214.72
2022-12-18T05:21:41.683Z,100223.53
2022-12-18T05:24:45.139Z,100234.72
2022-12-18T05:27:49.428Z,100227.56
2022-12-18T05:30:55.651Z,100237.69
2022-12-18T05:34:00.181Z,100237.44
2022-12-18T05:37:05.441Z,100241.84
2022-12-18T05:40:10.805Z,100248.38
2022-12-18T05:43:19.367Z,100254.94
2022-12-18T05:46:25.296Z,100249.69
2022-12-18T05:49:29.354Z,100262.31
2022-12-18T05:52:34.290Z,100260.66
2022-12-18T05:55:40.419Z,100270.19
2022-12-18T05:58:45.214Z,100267.94
2022-12-18T06:01:49.111Z,100282.69
2022-12-18T06:04:52.663Z,100281.84
2022-12-18T06:07:57.906Z,100282.69
2022-12-18T06:11:01.344Z,100293.03
2022-12-18T06:14:07.750Z,100296.63
2022-12-18T06:17:11.366Z,100298.16
2022-12-18T06:20:14.934Z,100310.16
2022-12-18T06:23:20.351Z,100310.16
2022-12-18T06:26:28.104Z,100314.00
2022-12-18T06:29:32.141Z,100314.38
2022-12-18T06:32:36.135Z,100313.41
2022-12-18T06:35:39.697Z,100318.66
2022-12-18T06:38:46.208Z,100330.53
2022-12-18T06:41:49.803Z,100329.81
2022-12-18T06:44:53.504Z,100335.72
2022-12-18T06:47:56.942Z,100349.91
2022-12-18T06:51:01.608Z,100361.41
2022-12-18T06:54:06.768Z,100366.63
2022-12-18T06:57:10.587Z,100358.66
2022-12-18T07:00:15.425Z,100374.84
2022-12-18T07:03:18.862Z,100369.59
2022-12-18T07:06:26.637Z,100370.19
2022-12-18T07:09:31.765Z,100375.66
2022-12-18T07:12:35.299Z,100376.72
2022-12-18T07:15:39.226Z,100379.00
2022-12-18T07:18:42.906Z,100393.28
2022-12-18T07:21:46.505Z,100386.50
2022-12-18T07:24:54.631Z,100396.50
2022-12-18T07:27:58.223Z,100401.72
2022-12-18T07:31:05.565Z,100409.63
2022-12-18T07:34:13.718Z,100408.06
2022-12-18T07:37:17.197Z,100416.03
2022-12-18T07:40:22.405Z,100423.53
2022-12-18T07:43:25.786Z,100418.91
2022-12-18T07:46:29.676Z,100420.91
2022-12-18T07:49:33.107Z,100419.38
2022-12-18T07:52:36.570Z,100417.00
2022-12-18T07:56:05.532Z,100417.94
2022-12-18T07:59:05.755Z,100424.84
2022-12-18T08:02:09.665Z,100423.94
2022-12-18T08:05:13.525Z,100429.25
2022-12-18T08:08:17.874Z,100429.63
2022-12-18T08:11:24.550Z,100429.53
2022-12-18T08:14:28.022Z,100424.06
2022-12-18T08:17:31.748Z,100430.69
2022-12-18T08:20:35.208Z,100432.16
2022-12-18T08:23:42.925Z,100439.06
2022-12-18T08:27:06.668Z,100437.75
2022-12-18T08:30:13.557Z,100438.09
2022-12-18T08:33:17.100Z,100440.59
2022-12-18T08:36:21.501Z,100445.84
2022-12-18T08:39:24.939Z,100451.31
2022-12-18T08:42:47.364Z,100455.25
2022-12-18T08:45:51.848Z,100466.06
2022-12-18T08:48:57.044Z,100463.09
2022-12-18T08:52:00.637Z,100464.41
2022-12-18T08:55:04.244Z,100469.66
2022-12-18T08:58:09.299Z,100470.47
2022-12-18T09:01:15.196Z,100474.88
2022-12-18T09:04:19.308Z,100480.38
2022-12-18T09:07:22.804Z,100491.91
2022-12-18T09:10:26.424Z,100499.28
2022-12-18T09:13:31.410Z,100498.22
2022-12-18T09:16:35.957Z,100492.38
2022-12-18T09:19:39.684Z,100496.66
2022-12-18T09:22:43.171Z,100491.19
2022-12-18T09:25:47.299Z,100491.44
2022-12-18T09:28:53.846Z,100493.34
2022-12-18T09:31:57.491Z,100495.47
2022-12-18T09:35:03.591Z,100504.75
2022-12-18T09:38:07.851Z,100502.03
2022-12-18T09:41:37.827Z,100504.28
2022-12-18T09:44:49.217Z,100495.94
2022-12-18T09:47:57.482Z,100501.44
2022-12-18T09:51:13.194Z,100503.09
2022-12-18T09:54:24.959Z,100494.66
2022-12-18T09:57:35.593Z,100508.94
2022-12-18T10:00:43.352Z,100497.16
2022-12-18T10:03:47.367Z,100501.78
2022-12-18T10:07:08.910Z,100508.69
2022-12-18T10:10:29.185Z,100498.31
2022-12-18T10:13:44.257Z,100499.16
2022-12-18T10:17:05.761Z,100489.03
2022-12-18T10:20:22.987Z,100486.91
2022-12-18T10:23:35.739Z,100479.75
2022-12-18T10:26:39.528Z,100481.91
2022-12-18T10:29:45.953Z,100489.88
2022-12-18T10:32:51.205Z,100482.50
2022-12-18T10:35:57.182Z,100475.00
2022-12-18T10:39:18.488Z,100481.91
2022-12-18T10:42:22.311Z,100475.00
2022-12-18T10:45:25.904Z,100480.09
2022-12-18T10:48:34.268Z,100494.63
2022-12-18T10:51:39.778Z,100461.88
2022-12-18T10:54:51.819Z,100463.66
2022-12-18T10:57:57.515Z,100461.50
2022-12-18T11:01:12.298Z,100461.16
2022-12-18T11:04:23.199Z,100459.94
2022-12-18T11:07:26.749Z,100473.16
2022-12-18T11:10:34.669Z,100472.31
2022-12-18T11:13:38.274Z,100477.31
2022-12-18T11:17:23.906Z,100478.06
2022-12-18T11:20:31.174Z,100477.25
2022-12-18T11:23:36.246Z,100475.47
2022-12-18T11:26:40.759Z,100472.25
2022-12-18T11:29:46.733Z,100479.28
2022-12-18T11:32:56.263Z,100470.38
2022-12-18T11:36:07.842Z,100475.72
2022-12-18T11:39:23.186Z,100477.53
2022-12-18T11:42:37.949Z,100479.88
2022-12-18T11:45:51.740Z,100476.56
2022-12-18T11:49:05.874Z,100475.97
2022-12-18T11:52:21.092Z,100472.63
2022-12-18T11:55:39.023Z,100475.34
2022-12-18T11:58:53.526Z,100475.59
2022-12-18T12:02:16.773Z,100467.97
2022-12-18T12:05:40.776Z,100485.84
2022-12-18T12:09:06.037Z,100491.91
2022-12-18T12:12:48.686Z,100490.59
2022-12-18T12:16:12.208Z,100499.66
2022-12-18T12:19:36.271Z,100496.41
2022-12-18T12:22:51.880Z,100500.25
2022-12-18T12:26:05.210Z,100497.25
2022-12-18T12:29:33.363Z,100502.50
2022-12-18T12:33:07.634Z,100497.25
2022-12-18T12:36:23.110Z,100504.53
2022-12-18T12:39:35.405Z,100510.47
2022-12-18T12:43:03.969Z,100503.31
2022-12-18T12:46:10.344Z,100509.28
2022-12-18T12:49:20.032Z,100502.97
2022-12-18T12:52:35.238Z,100503.78
2022-12-18T12:55:40.559Z,100511.91
2022-12-18T12:58:58.341Z,100509.78
2022-12-18T13:02:17.214Z,100508.56
2022-12-18T13:05:32.422Z,100512.97
2022-12-18T13:08:57.213Z,100522.63
2022-12-18T13:12:23.824Z,100527.13
2022-12-18T13:15:36.606Z,100531.53
2022-12-18T13:18:52.825Z,100529.41
2022-12-18T13:21:58.359Z,100533.44
2022-12-18T13:25:02.626Z,100528.25
2022-12-18T13:28:11.135Z,100535.59
2022-12-18T13:31:36.837Z,100540.34
2022-12-18T13:34:40.530Z,100535.47
2022-12-18T13:37:53.168Z,100542.50
2022-12-18T13:41:00.549Z,100539.25
2022-12-18T13:44:22.504Z,100542.13
2022-12-18T13:47:35.388Z,100539.78
2022-12-18T13:50:41.218Z,100548.47
2022-12-18T13:53:51.681Z,100547.97
2022-12-18T13:56:55.563Z,100550.47
2022-12-18T14:00:00.090Z,100541.56
2022-12-18T14:03:22.465Z,100541.66
2022-12-18T14:06:26.530Z,100548.56
2022-12-18T14:09:36.986Z,100552.81
2022-12-18T14:13:03.171Z,100543.88
2022-12-18T14:16:10.087Z,100549.19
2022-12-18T14:19:20.334Z,100541.47
2022-12-18T14:22:30.744Z,100541.13
2022-12-18T14:25:34.330Z,100540.13
2022-12-18T14:28:46.655Z,100539.31
2022-12-18T14:32:16.887Z,100542.50
2022-12-18T14:35:22.734Z,100540.94
2022-12-18T14:38:30.788Z,100529.41
2022-12-18T14:41:34.602Z,100535.56
2022-12-18T14:44:50.710Z,100540.06
2022-12-18T14:48:02.627Z,100540.16
2022-12-18T14:51:21.163Z,100543.97
2022-12-18T14:54:27.358Z,100559.41
2022-12-18T14:57:41.263Z,100556.66
2022-12-18T15:00:45.592Z,100564.72
2022-12-18T15:03:49.250Z,100558.34
2022-12-18T15:07:08.250Z,100560.56
2022-12-18T15:10:15.527Z,100566.75
2022-12-18T15:13:25.703Z,100563.69
2022-12-18T15:16:29.631Z,100581.78
2022-12-18T15:19:41.736Z,100579.66
2022-12-18T15:22:49.810Z,100585.13
2022-12-18T15:26:00.972Z,100595.00
2022-12-18T15:29:04.580Z,100590.59
2022-12-18T15:32:23.205Z,100587.38
2022-12-18T15:35:27.247Z,100577.41
2022-12-18T15:38:34.336Z,100586.81
2022-12-18T15:41:38.443Z,100595.38
2022-12-18T15:44:42.048Z,100604.69
2022-12-18T15:47:47.444Z,100599.22
2022-12-18T15:55:10.199Z,100609.31
2022-12-18T15:58:14.531Z,100600.75
2022-12-18T16:01:22.505Z,100598.59
2022-12-18T16:04:26.660Z,100601.34
2022-12-18T16:07:30.941Z,100598.13
2022-12-18T16:10:37.719Z,100611.34
2022-12-18T16:13:41.560Z,100617.28
2022-12-18T16:16:47.077Z,100621.09
2022-12-18T16:19:50.254Z,100620.72
2022-12-18T16:22:54.365Z,100618.69
2022-12-18T16:25:58.949Z,100613.66
2022-12-18T16:29:03.125Z,100613.66
2022-12-18T16:32:07.373Z,100614.38
2022-12-18T16:35:13.737Z,100619.03
2022-12-18T16:38:17.028Z,100620.56
2022-12-18T16:41:40.755Z,100611.28
2022-12-18T16:44:44.937Z,100606.88
2022-12-18T16:47:48.701Z,100605.81
2022-12-18T16:50:51.880Z,100604.06
2022-12-18T16:53:55.902Z,100598.09
2022-12-18T16:57:01.752Z,100595.72
2022-12-18T17:00:07.742Z,100596.34
2022-12-18T17:03:11.121Z,100595.50
2022-12-18T17:06:16.242Z,100587.06
2022-12-18T17:09:24.378Z,100576.56
2022-12-18T17:12:29.752Z,100573.47
2022-12-18T17:15:37.315Z,100570.63
2022-12-18T17:18:53.160Z,100572.97
2022-12-18T17:21:56.988Z,100555.81
2022-12-18T17:25:00.815Z,100558.44
2022-12-18T17:28:06.085Z,100554.75
2022-12-18T17:31:15.251Z,100548.69
2022-12-18T17:34:18.723Z,100556.00
2022-12-18T17:37:22.722Z,100560.28
2022-12-18T17:40:26.504Z,100560.28
2022-12-18T17:43:32.092Z,100570.00
2022-12-18T17:46:35.895Z,100571.88
2022-12-18T17:49:39.857Z,100591.69
2022-12-18T17:52:43.361Z,100587.38
2022-12-18T17:55:56.628Z,100603.09
2022-12-18T17:59:01.171Z,100601.19
2022-12-18T18:02:05.191Z,100594.94
2022-12-18T18:05:09.563Z,100604.34
2022-12-18T18:08:15.214Z,100607.69
2022-12-18T18:11:38.870Z,100606.63
2022-12-18T18:14:44.086Z,100601.88
2022-12-18T18:17:47.497Z,100605.06
2022-12-18T18:20:51.715Z,100597.69
2022-12-18T18:24:02.353Z,100592.22
2022-12-18T18:27:06.237Z,100597.53
2022-12-18T18:30:13.194Z,100595.25
2022-12-18T18:33:18.329Z,100600.59
2022-12-18T18:36:21.969Z,100612.59
2022-12-18T18:39:27.636Z,100614.09
2022-12-18T18:42:31.350Z,100611.59
2022-12-18T18:45:36.883Z,100620.03
2022-12-18T18:48:43.661Z,100627.59
2022-12-18T18:51:47.620Z,100626.78
2022-12-18T18:55:11.668Z,100628.69
2022-12-18T18:58:14.824Z,100649.13
2022-12-18T19:01:23.528Z,100643.44
2022-12-18T19:04:27.503Z,100642.59
2022-12-18T19:07:31.383Z,100638.78
2022-12-18T19:10:36.065Z,100642.94
2022-12-18T19:13:38.500Z,100649.41
2022-12-18T19:16:45.913Z,100641.59
2022-12-18T19:19:52.811Z,100651.69
2022-12-18T19:22:57.482Z,100657.41
2022-12-18T19:26:27.043Z,100658.69
2022-12-18T19:29:27.757Z,100643.56
2022-12-18T19:32:32.474Z,100645.22
2022-12-18T19:35:38.560Z,100653.22
2022-12-18T19:38:45.395Z,100648.13
2022-12-18T19:41:50.260Z,100647.13
2022-12-18T19:44:53.507Z,100653.31
2022-12-18T19:48:04.146Z,100652.16
2022-12-18T19:51:09.740Z,100650.09
2022-12-18T19:54:17.108Z,100652.22
2022-12-18T19:57:20.937Z,100646.91
2022-12-18T20:00:24.933Z,100654.56
2022-12-18T20:03:32.699Z,100649.88
2022-12-18T20:06:48.152Z,100633.69
2022-12-18T20:09:57.103Z,100641.06
2022-12-18T20:13:06.540Z,100653.88
2022-12-18T20:16:10.743Z,100641.66
2022-12-18T20:19:16.339Z,100638.59
2022-12-18T20:22:19.707Z,100633.97
2022-12-18T20:25:23.794Z,100625.94
2022-12-18T20:28:27.496Z,100625.09
2022-12-18T20:31:31.567Z,100622.59
2022-12-18T20:34:36.282Z,100619.69
2022-12-18T20:37:43.819Z,100612.72
2022-12-18T20:40:51.972Z,100606.91
2022-12-18T20:43:55.772Z,100605.97
2022-12-18T20:47:00.364Z,100600.88
2022-12-18T20:50:08.802Z,100589.09
2022-12-18T20:53:12.679Z,100580.97
2022-12-18T20:56:21.457Z,100583.13
2022-12-18T20:59:26.224Z,100595.56
2022-12-18T21:02:30.249Z,100584.47
2022-12-18T21:05:35.014Z,100590.78
2022-12-18T21:08:40.622Z,100600.88
2022-12-18T21:12:01.770Z,100590.56
2022-12-18T21:15:10.365Z,100594.75
2022-12-18T21:18:13.623Z,100591.78
2022-12-18T21:21:21.901Z,100611.31
2022-12-18T21:24:29.734Z,100611.53
2022-12-18T21:27:36.896Z,100606.28
2022-12-18T21:30:40.273Z,100606.28
2022-12-18T21:33:43.970Z,100603.56
2022-12-18T21:36:50.938Z,100605.22
2022-12-18T21:39:54.894Z,100599.97
2022-12-18T21:43:17.809Z,100591.78
2022-12-18T21:46:21.656Z,100593.91
2022-12-18T21:49:25.664Z,100582.97
2022-12-18T21:52:32.259Z,100588.44
2022-12-18T21:55:36.541Z,100582.75
2022-12-18T21:58:40.363Z,100582.28
2022-12-18T22:02:03.430Z,100568.41
2022-12-18T22:05:08.275Z,100578.50
2022-12-18T22:08:13.916Z,100578.22
2022-12-18T22:11:18.058Z,100573.88
2022-12-18T22:14:24.256Z,100571.69
2022-12-18T22:17:28.157Z,100571.69
2022-12-18T22:20:31.587Z,100575.28
2022-12-18T22:23:36.712Z,100568.97
2022-12-18T22:26:40.605Z,100563.50
2022-12-18T22:30:01.788Z,100560.78
2022-12-18T22:33:05.458Z,100560.41
2022-12-18T22:36:09.891Z,100560.78
2022-12-18T22:39:18.179Z,100568.97
2022-12-18T22:42:22.740Z,100572.19
2022-12-18T22:45:27.805Z,100559.44
2022-12-18T22:48:31.808Z,100565.44
2022-12-18T22:51:35.194Z,100566.31
2022-12-18T22:54:40.436Z,100564.88
2022-12-18T22:57:48.605Z,100564.75
2022-12-18T23:00:53.049Z,100569.59
2022-12-18T23:03:57.021Z,100570.66
2022-12-18T23:07:00.796Z,100562.69
2022-12-18T23:10:06.673Z,100560.25
2022-12-18T23:13:10.663Z,100571.13
2022-12-18T23:16:17.331Z,100565.03
2022-12-18T23:19:23.598Z,100564.66
2022-12-18T23:22:27.586Z,100559.19
2022-12-18T23:25:33.127Z,100549.09
2022-12-18T23:28:38.866Z,100548.22
2022-12-18T23:31:42.750Z,100553.69
2022-12-18T23:34:46.321Z,100560.22
2022-12-18T23:38:05.442Z,100560.00
2022-12-18T23:41:16.148Z,100559.41
2022-12-18T23:44:19.931Z,100558.22
2022-12-18T23:47:23.267Z,100549.41
2022-12-18T23:50:29.550Z,100550.91
2022-12-18T23:53:33.772Z,100545.91
2022-12-18T23:56:39.012Z,100553.50
2022-12-18T23:59:42.543Z,100542.19
